sensor_id;sensor_type;location;lat;lon;timestamp;P1;durP1;ratioP1;P2;durP2;ratioP2
2928;SDS011;1474;51.460;7.150;2024-01-30T06:01:50;5.28;;;3.22;;
2928;SDS011;1474;51.460;7.150;2024-01-30T06:04:16;5.70;;;3.83;;
2928;SDS011;1474;51.460;7.150;2024-01-30T06:06:42;4.57;;;2.92;;
2928;SDS011;1474;51.460;7.150;2024-01-30T06:09:08;3.85;;;3.33;;
2928;SDS011;1474;51.460;7.150;2024-01-30T06:11:34;4.70;;;3.40;;
2928;SDS011;1474;51.460;7.150;2024-01-30T06:14:00;6.25;;;3.20;;
2928;SDS011;1474;51.460;7.150;2024-01-30T06:16:25;4.88;;;3.40;;
2928;SDS011;1474;51.460;7.150;2024-01-30T06:18:54;5.38;;;3.33;;
2928;SDS011;1474;51.460;7.150;2024-01-30T06:21:20;5.97;;;3.85;;
2928;SDS011;1474;51.460;7.150;2024-01-30T06:23:46;5.22;;;3.90;;
2928;SDS011;1474;51.460;7.150;2024-01-30T06:26:12;5.88;;;3.85;;
2928;SDS011;1474;51.460;7.150;2024-01-30T06:28:37;5.40;;;3.67;;
2928;SDS011;1474;51.460;7.150;2024-01-30T06:31:03;5.47;;;3.45;;
2928;SDS011;1474;51.460;7.150;2024-01-30T06:33:29;5.38;;;3.22;;
2928;SDS011;1474;51.460;7.150;2024-01-30T06:35:54;4.30;;;3.40;;
2928;SDS011;1474;51.460;7.150;2024-01-30T06:38:20;7.10;;;4.05;;
2928;SDS011;1474;51.460;7.150;2024-01-30T06:40:46;4.97;;;3.22;;
2928;SDS011;1474;51.460;7.150;2024-01-30T06:43:11;4.97;;;3.60;;
2928;SDS011;1474;51.460;7.150;2024-01-30T06:45:37;4.95;;;3.10;;
2928;SDS011;1474;51.460;7.150;2024-01-30T06:48:02;4.90;;;3.80;;
2928;SDS011;1474;51.460;7.150;2024-01-30T06:50:28;4.55;;;3.30;;
2928;SDS011;1474;51.460;7.150;2024-01-30T06:52:54;3.97;;;3.20;;
2928;SDS011;1474;51.460;7.150;2024-01-30T06:55:19;5.85;;;3.85;;
2928;SDS011;1474;51.460;7.150;2024-01-30T06:57:45;10.98;;;3.97;;
2928;SDS011;1474;51.460;7.150;2024-01-30T07:00:11;4.82;;;3.20;;
2928;SDS011;1474;51.460;7.150;2024-01-30T07:02:37;5.88;;;3.75;;
2928;SDS011;1474;51.460;7.150;2024-01-30T07:05:02;6.93;;;4.32;;
2928;SDS011;1474;51.460;7.150;2024-01-30T07:07:28;5.90;;;4.20;;
2928;SDS011;1474;51.460;7.150;2024-01-30T07:09:54;3.92;;;3.28;;
2928;SDS011;1474;51.460;7.150;2024-01-30T07:12:23;7.25;;;3.67;;
2928;SDS011;1474;51.460;7.150;2024-01-30T07:14:50;5.38;;;3.55;;
2928;SDS011;1474;51.460;7.150;2024-01-30T07:17:17;5.18;;;3.25;;
2928;SDS011;1474;51.460;7.150;2024-01-30T07:19:47;6.93;;;3.67;;
2928;SDS011;1474;51.460;7.150;2024-01-30T07:22:15;6.85;;;4.15;;
2928;SDS011;1474;51.460;7.150;2024-01-30T07:24:44;6.18;;;4.20;;
2928;SDS011;1474;51.460;7.150;2024-01-30T07:27:15;4.07;;;3.53;;
2928;SDS011;1474;51.460;7.150;2024-01-30T07:29:42;6.03;;;3.63;;
2928;SDS011;1474;51.460;7.150;2024-01-30T07:32:08;4.75;;;3.42;;
2928;SDS011;1474;51.460;7.150;2024-01-30T07:34:33;4.47;;;3.58;;
2928;SDS011;1474;51.460;7.150;2024-01-30T07:36:59;4.95;;;3.58;;
2928;SDS011;1474;51.460;7.150;2024-01-30T07:39:25;4.85;;;3.30;;
2928;SDS011;1474;51.460;7.150;2024-01-30T07:41:50;6.07;;;4.30;;
2928;SDS011;1474;51.460;7.150;2024-01-30T07:44:16;4.80;;;3.90;;
2928;SDS011;1474;51.460;7.150;2024-01-30T07:46:41;4.28;;;3.45;;
2928;SDS011;1474;51.460;7.150;2024-01-30T07:49:07;3.65;;;3.20;;
2928;SDS011;1474;51.460;7.150;2024-01-30T07:51:33;6.18;;;3.60;;
2928;SDS011;1474;51.460;7.150;2024-01-30T07:53:58;4.85;;;3.63;;
2928;SDS011;1474;51.460;7.150;2024-01-30T07:56:24;6.00;;;3.38;;
2928;SDS011;1474;51.460;7.150;2024-01-30T07:58:50;4.15;;;3.10;;
2928;SDS011;1474;51.460;7.150;2024-01-30T08:01:16;5.13;;;3.78;;
2928;SDS011;1474;51.460;7.150;2024-01-30T08:03:41;3.75;;;3.03;;
2928;SDS011;1474;51.460;7.150;2024-01-30T08:06:07;6.10;;;3.45;;
2928;SDS011;1474;51.460;7.150;2024-01-30T08:08:32;6.03;;;3.40;;
2928;SDS011;1474;51.460;7.150;2024-01-30T08:10:58;6.75;;;3.53;;
2928;SDS011;1474;51.460;7.150;2024-01-30T08:13:24;4.10;;;3.38;;
2928;SDS011;1474;51.460;7.150;2024-01-30T08:15:49;7.00;;;3.78;;
2928;SDS011;1474;51.460;7.150;2024-01-30T08:18:15;4.45;;;3.42;;
2928;SDS011;1474;51.460;7.150;2024-01-30T08:20:40;5.22;;;3.33;;
2928;SDS011;1474;51.460;7.150;2024-01-30T08:23:06;4.82;;;3.50;;
2928;SDS011;1474;51.460;7.150;2024-01-30T08:25:32;4.20;;;3.08;;
2928;SDS011;1474;51.460;7.150;2024-01-30T08:27:58;4.60;;;3.05;;
2928;SDS011;1474;51.460;7.150;2024-01-30T08:30:32;3.63;;;3.00;;
2928;SDS011;1474;51.460;7.150;2024-01-30T08:33:02;4.47;;;3.15;;
2928;SDS011;1474;51.460;7.150;2024-01-30T08:35:48;5.72;;;4.00;;
2928;SDS011;1474;51.460;7.150;2024-01-30T08:38:14;5.20;;;3.30;;
2928;SDS011;1474;51.460;7.150;2024-01-30T08:40:42;5.65;;;3.50;;
2928;SDS011;1474;51.460;7.150;2024-01-30T08:43:08;5.00;;;3.50;;
2928;SDS011;1474;51.460;7.150;2024-01-30T08:45:37;5.35;;;3.25;;
2928;SDS011;1474;51.460;7.150;2024-01-30T08:48:05;4.97;;;3.05;;
2928;SDS011;1474;51.460;7.150;2024-01-30T08:50:32;5.43;;;3.75;;
2928;SDS011;1474;51.460;7.150;2024-01-30T08:52:59;4.70;;;2.70;;
2928;SDS011;1474;51.460;7.150;2024-01-30T08:55:36;5.72;;;3.50;;
2928;SDS011;1474;51.460;7.150;2024-01-30T08:58:02;6.32;;;3.30;;
2928;SDS011;1474;51.460;7.150;2024-01-30T09:00:49;6.03;;;2.97;;
2928;SDS011;1474;51.460;7.150;2024-01-30T09:03:17;3.85;;;3.28;;
2928;SDS011;1474;51.460;7.150;2024-01-30T09:05:43;5.07;;;3.63;;
2928;SDS011;1474;51.460;7.150;2024-01-30T09:08:08;6.03;;;3.47;;
2928;SDS011;1474;51.460;7.150;2024-01-30T09:10:38;5.88;;;3.78;;
2928;SDS011;1474;51.460;7.150;2024-01-30T09:13:06;5.05;;;3.90;;
2928;SDS011;1474;51.460;7.150;2024-01-30T09:15:34;5.25;;;4.07;;
2928;SDS011;1474;51.460;7.150;2024-01-30T09:18:01;4.45;;;3.08;;
2928;SDS011;1474;51.460;7.150;2024-01-30T09:20:27;5.00;;;3.33;;
2928;SDS011;1474;51.460;7.150;2024-01-30T09:22:52;4.78;;;3.58;;
2928;SDS011;1474;51.460;7.150;2024-01-30T09:25:18;5.20;;;3.47;;
2928;SDS011;1474;51.460;7.150;2024-01-30T09:27:44;4.50;;;3.17;;
2928;SDS011;1474;51.460;7.150;2024-01-30T09:30:10;5.35;;;3.78;;
2928;SDS011;1474;51.460;7.150;2024-01-30T09:32:35;6.30;;;3.92;;
2928;SDS011;1474;51.460;7.150;2024-01-30T09:35:01;3.90;;;3.50;;
2928;SDS011;1474;51.460;7.150;2024-01-30T09:37:27;4.00;;;3.60;;
2928;SDS011;1474;51.460;7.150;2024-01-30T09:39:52;3.55;;;3.25;;
2928;SDS011;1474;51.460;7.150;2024-01-30T09:42:34;5.95;;;3.78;;
2928;SDS011;1474;51.460;7.150;2024-01-30T09:45:04;6.22;;;3.15;;
2928;SDS011;1474;51.460;7.150;2024-01-30T09:47:32;5.13;;;3.45;;
2928;SDS011;1474;51.460;7.150;2024-01-30T09:50:06;5.30;;;3.40;;
2928;SDS011;1474;51.460;7.150;2024-01-30T09:52:33;5.15;;;3.25;;
2928;SDS011;1474;51.460;7.150;2024-01-30T09:54:59;3.45;;;3.15;;
2928;SDS011;1474;51.460;7.150;2024-01-30T09:57:26;4.78;;;2.63;;
2928;SDS011;1474;51.460;7.150;2024-01-30T09:59:52;3.83;;;3.40;;
2928;SDS011;1474;51.460;7.150;2024-01-30T10:02:19;4.97;;;3.47;;
2928;SDS011;1474;51.460;7.150;2024-01-30T10:04:47;4.75;;;3.63;;
2928;SDS011;1474;51.460;7.150;2024-01-30T10:07:14;5.28;;;3.63;;
2928;SDS011;1474;51.460;7.150;2024-01-30T10:09:40;5.97;;;3.35;;
2928;SDS011;1474;51.460;7.150;2024-01-30T10:12:06;4.85;;;3.17;;
2928;SDS011;1474;51.460;7.150;2024-01-30T10:14:33;4.35;;;3.13;;
2928;SDS011;1474;51.460;7.150;2024-01-30T10:17:03;5.80;;;2.88;;
2928;SDS011;1474;51.460;7.150;2024-01-30T10:19:29;5.45;;;3.47;;
2928;SDS011;1474;51.460;7.150;2024-01-30T10:21:54;4.25;;;3.35;;
2928;SDS011;1474;51.460;7.150;2024-01-30T10:24:23;4.75;;;3.22;;
2928;SDS011;1474;51.460;7.150;2024-01-30T10:26:49;3.35;;;3.00;;
2928;SDS011;1474;51.460;7.150;2024-01-30T10:29:16;5.80;;;3.35;;
2928;SDS011;1474;51.460;7.150;2024-01-30T10:31:42;3.72;;;3.08;;
2928;SDS011;1474;51.460;7.150;2024-01-30T10:34:08;4.55;;;3.15;;
2928;SDS011;1474;51.460;7.150;2024-01-30T10:36:34;6.40;;;3.80;;
2928;SDS011;1474;51.460;7.150;2024-01-30T10:39:08;3.90;;;3.08;;
2928;SDS011;1474;51.460;7.150;2024-01-30T10:41:35;4.50;;;3.72;;
2928;SDS011;1474;51.460;7.150;2024-01-30T10:44:10;5.38;;;3.22;;
2928;SDS011;1474;51.460;7.150;2024-01-30T10:46:40;5.78;;;3.08;;
2928;SDS011;1474;51.460;7.150;2024-01-30T10:51:34;4.32;;;3.40;;
2928;SDS011;1474;51.460;7.150;2024-01-30T10:54:02;4.53;;;3.33;;
2928;SDS011;1474;51.460;7.150;2024-01-30T10:56:30;4.60;;;3.65;;
2928;SDS011;1474;51.460;7.150;2024-01-30T10:58:58;5.25;;;3.45;;
2928;SDS011;1474;51.460;7.150;2024-01-30T11:01:25;7.15;;;3.25;;
2928;SDS011;1474;51.460;7.150;2024-01-30T11:03:52;5.03;;;3.60;;
2928;SDS011;1474;51.460;7.150;2024-01-30T11:06:21;8.90;;;3.10;;
2928;SDS011;1474;51.460;7.150;2024-01-30T11:09:00;4.43;;;3.28;;
2928;SDS011;1474;51.460;7.150;2024-01-30T11:11:28;4.07;;;3.05;;
2928;SDS011;1474;51.460;7.150;2024-01-30T11:13:54;5.22;;;3.70;;
2928;SDS011;1474;51.460;7.150;2024-01-30T11:16:19;5.90;;;3.47;;
2928;SDS011;1474;51.460;7.150;2024-01-30T11:18:49;4.70;;;3.33;;
2928;SDS011;1474;51.460;7.150;2024-01-30T11:21:18;4.22;;;3.53;;
2928;SDS011;1474;51.460;7.150;2024-01-30T11:23:44;5.90;;;3.38;;
2928;SDS011;1474;51.460;7.150;2024-01-30T11:26:10;4.60;;;3.60;;
2928;SDS011;1474;51.460;7.150;2024-01-30T11:28:37;3.60;;;3.03;;
2928;SDS011;1474;51.460;7.150;2024-01-30T11:31:06;4.80;;;3.42;;
2928;SDS011;1474;51.460;7.150;2024-01-30T11:33:33;9.23;;;4.75;;
2928;SDS011;1474;51.460;7.150;2024-01-30T11:35:59;5.60;;;2.92;;
2928;SDS011;1474;51.460;7.150;2024-01-30T11:38:26;5.18;;;3.20;;
2928;SDS011;1474;51.460;7.150;2024-01-30T11:40:53;4.18;;;3.40;;
2928;SDS011;1474;51.460;7.150;2024-01-30T11:43:21;7.65;;;3.88;;
2928;SDS011;1474;51.460;7.150;2024-01-30T11:45:47;6.35;;;3.90;;
2928;SDS011;1474;51.460;7.150;2024-01-30T11:48:12;4.28;;;3.78;;
2928;SDS011;1474;51.460;7.150;2024-01-30T11:50:39;5.50;;;3.28;;
2928;SDS011;1474;51.460;7.150;2024-01-30T11:53:05;7.07;;;3.65;;
2928;SDS011;1474;51.460;7.150;2024-01-30T11:55:32;6.38;;;3.40;;
2928;SDS011;1474;51.460;7.150;2024-01-30T11:57:59;8.57;;;3.63;;
2928;SDS011;1474;51.460;7.150;2024-01-30T12:00:25;7.43;;;3.25;;
2928;SDS011;1474;51.460;7.150;2024-01-30T12:02:51;8.40;;;4.53;;
2928;SDS011;1474;51.460;7.150;2024-01-30T12:05:27;9.38;;;3.90;;
2928;SDS011;1474;51.460;7.150;2024-01-30T12:07:53;5.68;;;3.70;;
2928;SDS011;1474;51.460;7.150;2024-01-30T12:10:19;5.63;;;3.97;;
2928;SDS011;1474;51.460;7.150;2024-01-30T12:12:46;6.55;;;3.25;;
2928;SDS011;1474;51.460;7.150;2024-01-30T12:15:14;7.60;;;3.80;;
2928;SDS011;1474;51.460;7.150;2024-01-30T12:17:41;5.95;;;3.60;;
2928;SDS011;1474;51.460;7.150;2024-01-30T12:20:08;6.82;;;3.67;;
2928;SDS011;1474;51.460;7.150;2024-01-30T12:25:07;6.25;;;4.25;;
2928;SDS011;1474;51.460;7.150;2024-01-30T12:27:44;7.15;;;4.20;;
2928;SDS011;1474;51.460;7.150;2024-01-30T12:30:15;5.03;;;4.00;;
2928;SDS011;1474;51.460;7.150;2024-01-30T12:32:42;6.07;;;4.05;;
2928;SDS011;1474;51.460;7.150;2024-01-30T12:35:12;5.45;;;4.28;;
2928;SDS011;1474;51.460;7.150;2024-01-30T12:37:40;3.72;;;3.13;;
2928;SDS011;1474;51.460;7.150;2024-01-30T12:40:09;6.63;;;4.70;;
2928;SDS011;1474;51.460;7.150;2024-01-30T12:42:38;7.85;;;4.13;;
2928;SDS011;1474;51.460;7.150;2024-01-30T12:45:04;7.22;;;3.92;;
2928;SDS011;1474;51.460;7.150;2024-01-30T12:47:31;8.05;;;4.90;;
2928;SDS011;1474;51.460;7.150;2024-01-30T12:49:57;6.18;;;3.92;;
2928;SDS011;1474;51.460;7.150;2024-01-30T12:52:23;6.72;;;4.10;;
2928;SDS011;1474;51.460;7.150;2024-01-30T12:54:49;5.13;;;3.50;;
2928;SDS011;1474;51.460;7.150;2024-01-30T12:57:16;4.20;;;3.70;;
2928;SDS011;1474;51.460;7.150;2024-01-30T12:59:42;5.78;;;4.13;;
2928;SDS011;1474;51.460;7.150;2024-01-30T13:02:09;5.60;;;4.03;;
2928;SDS011;1474;51.460;7.150;2024-01-30T13:04:35;5.85;;;3.90;;
2928;SDS011;1474;51.460;7.150;2024-01-30T13:07:01;5.05;;;3.97;;
2928;SDS011;1474;51.460;7.150;2024-01-30T13:09:29;9.50;;;4.10;;
2928;SDS011;1474;51.460;7.150;2024-01-30T13:11:55;8.25;;;4.28;;
2928;SDS011;1474;51.460;7.150;2024-01-30T13:14:21;6.03;;;4.70;;
2928;SDS011;1474;51.460;7.150;2024-01-30T13:16:47;7.38;;;4.70;;
2928;SDS011;1474;51.460;7.150;2024-01-30T13:19:13;5.47;;;3.70;;
2928;SDS011;1474;51.460;7.150;2024-01-30T13:21:38;7.53;;;4.85;;
2928;SDS011;1474;51.460;7.150;2024-01-30T13:24:04;13.30;;;5.00;;
2928;SDS011;1474;51.460;7.150;2024-01-30T13:26:33;11.40;;;6.28;;
2928;SDS011;1474;51.460;7.150;2024-01-30T13:28:59;9.25;;;4.32;;
2928;SDS011;1474;51.460;7.150;2024-01-30T13:31:25;8.20;;;4.05;;
2928;SDS011;1474;51.460;7.150;2024-01-30T13:33:52;6.85;;;4.65;;
2928;SDS011;1474;51.460;7.150;2024-01-30T13:36:18;10.43;;;5.55;;
2928;SDS011;1474;51.460;7.150;2024-01-30T13:38:44;7.63;;;4.10;;
2928;SDS011;1474;51.460;7.150;2024-01-30T13:41:10;5.80;;;4.25;;
2928;SDS011;1474;51.460;7.150;2024-01-30T13:43:36;7.55;;;4.68;;
2928;SDS011;1474;51.460;7.150;2024-01-30T13:46:01;7.35;;;4.22;;
2928;SDS011;1474;51.460;7.150;2024-01-30T13:48:31;9.02;;;4.68;;
2928;SDS011;1474;51.460;7.150;2024-01-30T13:51:00;6.90;;;4.25;;
2928;SDS011;1474;51.460;7.150;2024-01-30T13:53:39;8.07;;;4.30;;
2928;SDS011;1474;51.460;7.150;2024-01-30T13:56:07;9.27;;;4.57;;
2928;SDS011;1474;51.460;7.150;2024-01-30T13:58:33;7.63;;;4.32;;
2928;SDS011;1474;51.460;7.150;2024-01-30T14:03:30;9.15;;;4.43;;
2928;SDS011;1474;51.460;7.150;2024-01-30T14:05:55;9.90;;;4.70;;
2928;SDS011;1474;51.460;7.150;2024-01-30T14:08:21;7.53;;;4.70;;
2928;SDS011;1474;51.460;7.150;2024-01-30T14:10:49;9.00;;;4.68;;
2928;SDS011;1474;51.460;7.150;2024-01-30T14:13:14;5.05;;;4.13;;
2928;SDS011;1474;51.460;7.150;2024-01-30T14:15:40;6.13;;;4.50;;
2928;SDS011;1474;51.460;7.150;2024-01-30T14:18:06;8.85;;;4.60;;
2928;SDS011;1474;51.460;7.150;2024-01-30T14:20:33;6.22;;;4.65;;
2928;SDS011;1474;51.460;7.150;2024-01-30T14:22:59;5.05;;;4.55;;
2928;SDS011;1474;51.460;7.150;2024-01-30T14:25:24;9.27;;;4.43;;
2928;SDS011;1474;51.460;7.150;2024-01-30T14:27:51;7.57;;;5.28;;
2928;SDS011;1474;51.460;7.150;2024-01-30T14:30:17;5.70;;;4.07;;
2928;SDS011;1474;51.460;7.150;2024-01-30T14:32:42;6.15;;;4.38;;
2928;SDS011;1474;51.460;7.150;2024-01-30T14:35:09;7.30;;;4.80;;
2928;SDS011;1474;51.460;7.150;2024-01-30T14:37:35;6.40;;;4.53;;
2928;SDS011;1474;51.460;7.150;2024-01-30T14:40:02;8.25;;;5.03;;
2928;SDS011;1474;51.460;7.150;2024-01-30T14:42:28;6.03;;;3.90;;
2928;SDS011;1474;51.460;7.150;2024-01-30T14:44:56;8.98;;;4.88;;
2928;SDS011;1474;51.460;7.150;2024-01-30T14:47:22;6.88;;;4.38;;
2928;SDS011;1474;51.460;7.150;2024-01-30T14:49:48;5.57;;;4.55;;
2928;SDS011;1474;51.460;7.150;2024-01-30T14:52:14;8.82;;;4.93;;
2928;SDS011;1474;51.460;7.150;2024-01-30T14:54:40;7.18;;;5.60;;
2928;SDS011;1474;51.460;7.150;2024-01-30T14:57:05;7.90;;;5.15;;
2928;SDS011;1474;51.460;7.150;2024-01-30T14:59:31;6.72;;;4.70;;
2928;SDS011;1474;51.460;7.150;2024-01-30T15:01:58;5.93;;;5.25;;
2928;SDS011;1474;51.460;7.150;2024-01-30T15:04:23;5.78;;;4.38;;
2928;SDS011;1474;51.460;7.150;2024-01-30T15:06:49;7.40;;;4.55;;
2928;SDS011;1474;51.460;7.150;2024-01-30T15:09:15;9.15;;;4.90;;
2928;SDS011;1474;51.460;7.150;2024-01-30T15:11:41;7.30;;;4.78;;
2928;SDS011;1474;51.460;7.150;2024-01-30T15:14:09;7.47;;;5.13;;
2928;SDS011;1474;51.460;7.150;2024-01-30T15:16:35;7.68;;;4.82;;
2928;SDS011;1474;51.460;7.150;2024-01-30T15:19:01;6.03;;;4.18;;
2928;SDS011;1474;51.460;7.150;2024-01-30T15:21:27;7.53;;;5.00;;
2928;SDS011;1474;51.460;7.150;2024-01-30T15:23:54;6.72;;;5.03;;
2928;SDS011;1474;51.460;7.150;2024-01-30T15:26:20;10.60;;;4.55;;
2928;SDS011;1474;51.460;7.150;2024-01-30T15:28:45;10.00;;;4.85;;
2928;SDS011;1474;51.460;7.150;2024-01-30T15:31:11;8.73;;;5.38;;
2928;SDS011;1474;51.460;7.150;2024-01-30T15:33:37;8.38;;;4.18;;
2928;SDS011;1474;51.460;7.150;2024-01-30T15:36:02;6.35;;;4.43;;
2928;SDS011;1474;51.460;7.150;2024-01-30T15:38:28;5.20;;;3.53;;
